Time;durP1;ratioP1;P1;durP2;ratioP2;P2;SDS_P1;SDS_P2;PMS_P1;PMS_P2;Temp;Humidity;BMP_temperature;BMP_pressure;BME280_temperature;BME280_humidity;BME280_pressure;Samples;Min_cycle;Max_cycle;Signal;HPM_P1;HPM_P2
2022/05/17 00:00:47;;;;;;;8.00;2.30;;;;;;;14.09;72.96;101896.94;4969919;28;20043;-76
2022/05/17 00:03:14;;;;;;;5.38;1.95;;;;;;;14.04;73.45;101902.75;4979550;28;20030;-77
2022/05/17 00:05:41;;;;;;;4.22;2.08;;;;;;;14.02;72.62;101903.81;4985248;28;20392;-70
2022/05/17 00:08:07;;;;;;;5.57;2.13;;;;;;;13.96;73.18;101894.19;5020735;28;20553;-69
2022/05/17 00:10:33;;;;;;;6.50;2.45;;;;;;;13.93;73.49;101905.31;4979625;28;20030;-76
2022/05/17 00:12:58;;;;;;;7.60;2.50;;;;;;;13.89;73.24;101900.19;4986032;28;20522;-70
2022/05/17 00:15:23;;;;;;;3.67;2.05;;;;;;;13.81;73.62;101898.00;4980717;28;20037;-71
2022/05/17 00:17:52;;;;;;;6.80;2.33;;;;;;;13.77;73.10;101893.72;4973333;28;20031;-71
2022/05/17 00:20:18;;;;;;;3.22;2.00;;;;;;;13.74;73.63;101894.78;4988954;28;20034;-69
2022/05/17 00:22:43;;;;;;;4.10;2.25;;;;;;;13.72;73.44;101898.63;5022660;28;20046;-69
2022/05/17 00:25:11;;;;;;;6.65;2.35;;;;;;;13.70;73.57;101893.25;4991137;28;20045;-71
2022/05/17 00:27:37;;;;;;;5.13;2.75;;;;;;;13.65;73.76;101879.00;4990280;28;20042;-76
2022/05/17 00:30:05;;;;;;;5.93;2.15;;;;;;;13.62;72.71;101881.97;4987616;28;21072;-77
2022/05/17 00:32:30;;;;;;;8.02;2.53;;;;;;;13.60;73.18;101874.84;4987427;28;20505;-79
2022/05/17 00:34:55;;;;;;;5.80;2.40;;;;;;;13.55;74.35;101871.56;4980678;28;20042;-71
2022/05/17 00:37:21;;;;;;;4.05;2.35;;;;;;;13.53;74.27;101880.75;4985937;28;20050;-77
2022/05/17 00:39:46;;;;;;;4.55;2.10;;;;;;;13.50;74.16;101880.94;4983080;28;20088;-77
2022/05/17 00:42:12;;;;;;;7.15;2.53;;;;;;;13.48;73.62;101882.06;4984827;28;20418;-70
2022/05/17 00:44:43;;;;;;;4.10;2.33;;;;;;;13.44;74.38;101880.50;4985087;28;20045;-79
2022/05/17 00:47:14;;;;;;;5.25;2.13;;;;;;;13.41;74.29;101873.38;4979296;28;20061;-79
2022/05/17 00:49:48;;;;;;;6.57;2.13;;;;;;;13.37;74.64;101879.16;4978944;28;20482;-71
2022/05/17 00:52:25;;;;;;;5.10;2.13;;;;;;;13.34;75.14;101876.66;4979608;28;20037;-72
2022/05/17 00:54:55;;;;;;;4.65;2.22;;;;;;;13.36;75.44;101874.66;5019857;28;20054;-70
2022/05/17 00:57:57;;;;;;;5.72;2.22;;;;;;;13.38;73.94;101875.44;4985237;28;20035;-77
2022/05/17 01:00:24;;;;;;;6.33;3.43;;;;;;;13.36;74.66;101883.75;4986229;28;20042;-70
2022/05/17 01:03:00;;;;;;;4.80;2.83;;;;;;;13.34;74.88;101874.78;4982889;28;20290;-79
2022/05/17 01:05:29;;;;;;;6.32;3.22;;;;;;;13.27;75.56;101866.09;4996476;28;20398;-70
2022/05/17 01:07:57;;;;;;;6.70;2.75;;;;;;;13.25;75.42;101870.81;4988998;28;20045;-77
2022/05/17 01:10:26;;;;;;;3.83;2.95;;;;;;;13.30;75.87;101878.69;4979297;28;20230;-69
2022/05/17 01:15:37;;;;;;;4.65;2.63;;;;;;;13.34;74.74;101861.13;4985281;28;20525;-79
2022/05/17 01:18:04;;;;;;;5.55;2.85;;;;;;;13.31;75.66;101860.44;4987453;28;20251;-72
2022/05/17 01:20:30;;;;;;;5.20;3.03;;;;;;;13.31;75.23;101855.84;4997960;28;20030;-71
2022/05/17 01:22:56;;;;;;;4.45;2.78;;;;;;;13.33;75.54;101862.06;4993595;28;20030;-70
2022/05/17 01:25:21;;;;;;;11.15;3.50;;;;;;;13.36;76.06;101861.00;4990604;28;20041;-79
2022/05/17 01:27:55;;;;;;;6.63;2.63;;;;;;;13.40;75.84;101857.97;4980629;28;20438;-71
2022/05/17 01:30:23;;;;;;;6.65;3.22;;;;;;;13.40;76.22;101865.28;4993071;28;20092;-79
2022/05/17 01:32:49;;;;;;;7.00;3.00;;;;;;;13.42;76.48;101860.56;4971380;28;20117;-79
2022/05/17 01:35:14;;;;;;;6.88;3.17;;;;;;;13.47;76.85;101863.88;4980941;28;20110;-76
2022/05/17 01:37:40;;;;;;;7.45;2.80;;;;;;;13.51;76.33;101866.28;4989242;28;20164;-70
2022/05/17 01:40:06;;;;;;;4.82;3.10;;;;;;;13.51;77.21;101868.16;4989121;28;20401;-70
2022/05/17 01:42:32;;;;;;;6.25;2.88;;;;;;;13.48;76.66;101868.38;4993075;28;20037;-78
2022/05/17 01:44:58;;;;;;;8.05;3.60;;;;;;;13.48;77.92;101871.13;5013909;28;20046;-78
2022/05/17 01:47:23;;;;;;;6.07;3.28;;;;;;;13.55;77.51;101863.34;4981559;28;20058;-78
2022/05/17 01:49:48;;;;;;;5.03;2.88;;;;;;;13.60;77.19;101862.06;4985671;28;20595;-70
2022/05/17 01:52:14;;;;;;;6.72;3.20;;;;;;;13.64;77.34;101876.41;4993015;28;20402;-76
2022/05/17 01:54:39;;;;;;;8.65;3.42;;;;;;;13.67;77.10;101866.13;5023180;28;20490;-76
2022/05/17 01:57:05;;;;;;;7.97;3.38;;;;;;;13.70;77.83;101867.75;4991544;28;20613;-71
2022/05/17 01:59:32;;;;;;;6.43;3.60;;;;;;;13.72;77.40;101874.00;4992943;28;20500;-78
2022/05/17 02:01:58;;;;;;;9.60;3.22;;;;;;;13.78;77.24;101876.31;4976951;28;20058;-76
2022/05/17 02:04:24;;;;;;;5.95;3.20;;;;;;;13.76;78.44;101870.97;4981955;28;20028;-69
2022/05/17 02:06:50;;;;;;;6.45;2.95;;;;;;;13.78;78.01;101873.56;4992852;28;20038;-70
2022/05/17 02:09:16;;;;;;;9.07;3.58;;;;;;;13.81;78.08;101870.63;4991578;28;20038;-76
2022/05/17 02:11:41;;;;;;;10.30;4.55;;;;;;;13.79;77.45;101868.00;4993111;28;20405;-69
2022/05/17 02:14:07;;;;;;;7.22;4.10;;;;;;;13.82;77.41;101869.66;4988879;28;20518;-71
2022/05/17 02:16:37;;;;;;;8.25;3.22;;;;;;;13.87;77.51;101866.59;4978413;28;20569;-79
2022/05/17 02:19:04;;;;;;;5.50;3.67;;;;;;;13.91;76.79;101868.13;4989326;28;20509;-70
2022/05/17 02:21:29;;;;;;;9.52;4.20;;;;;;;13.91;78.04;101869.00;4992601;28;20101;-70
2022/05/17 02:23:55;;;;;;;10.82;4.43;;;;;;;13.94;78.19;101870.63;4991941;28;20069;-74
2022/05/17 02:26:20;;;;;;;6.22;4.70;;;;;;;13.95;77.55;101869.69;4992479;28;20042;-70
2022/05/17 02:28:45;;;;;;;11.55;5.60;;;;;;;13.93;78.35;101872.50;5014373;28;20454;-71
2022/05/17 02:31:15;;;;;;;17.17;5.53;;;;;;;13.93;78.13;101866.16;4986989;28;20042;-77
2022/05/17 02:33:41;;;;;;;9.48;5.47;;;;;;;14.00;77.67;101873.84;4979596;28;20395;-78
2022/05/17 02:36:07;;;;;;;10.77;3.97;;;;;;;14.01;77.99;101874.72;4982550;28;20103;-77
2022/05/17 02:38:33;;;;;;;7.00;4.10;;;;;;;14.05;77.33;101870.78;4986805;28;20038;-79
2022/05/17 02:40:58;;;;;;;13.15;4.97;;;;;;;14.05;78.20;101876.25;4982101;28;20084;-78
2022/05/17 02:43:24;;;;;;;13.07;5.63;;;;;;;14.07;77.81;101870.66;4989783;28;20045;-71
2022/05/17 02:45:50;;;;;;;9.90;4.38;;;;;;;14.07;78.14;101878.88;4991294;28;20041;-71
2022/05/17 02:48:16;;;;;;;10.20;5.00;;;;;;;14.07;78.94;101884.34;4985167;28;20481;-76
2022/05/17 02:50:41;;;;;;;8.88;4.22;;;;;;;14.06;78.16;101883.47;4982848;28;20104;-70
2022/05/17 02:53:06;;;;;;;10.10;4.18;;;;;;;14.02;77.78;101879.19;4987070;28;20023;-76
2022/05/17 02:55:32;;;;;;;13.38;4.47;;;;;;;14.03;77.75;101889.16;4977108;28;20092;-69
2022/05/17 02:57:58;;;;;;;10.68;5.10;;;;;;;13.97;77.72;101884.97;4987208;28;20035;-71
2022/05/17 03:00:25;;;;;;;9.25;4.38;;;;;;;13.95;77.82;101886.97;4975721;28;20027;-76
2022/05/17 03:02:52;;;;;;;9.32;4.47;;;;;;;13.88;78.00;101882.88;4985485;28;20034;-79
2022/05/17 03:05:18;;;;;;;8.68;4.28;;;;;;;13.84;78.80;101891.41;4985439;28;20089;-71
2022/05/17 03:07:44;;;;;;;6.72;4.03;;;;;;;13.81;78.20;101891.66;4991719;28;20038;-73
2022/05/17 03:10:11;;;;;;;8.80;4.38;;;;;;;13.76;78.06;101881.91;4992085;28;20402;-77
2022/05/17 03:12:37;;;;;;;8.70;4.15;;;;;;;13.74;78.64;101885.72;4986346;28;20030;-79
2022/05/17 03:15:04;;;;;;;7.10;4.03;;;;;;;13.73;77.76;101897.63;4980793;28;20061;-69
2022/05/17 03:17:29;;;;;;;10.88;4.60;;;;;;;13.73;78.08;101897.63;4976750;28;20031;-77
2022/05/17 03:19:55;;;;;;;9.35;4.30;;;;;;;13.71;78.14;101894.16;4978241;28;20049;-70
2022/05/17 03:22:21;;;;;;;8.23;4.57;;;;;;;13.67;77.66;101884.41;5015518;28;20015;-71
2022/05/17 03:24:46;;;;;;;9.82;4.60;;;;;;;13.63;78.11;101885.59;4990253;28;20045;-76
2022/05/17 03:27:11;;;;;;;8.50;4.50;;;;;;;13.58;78.48;101885.91;4991703;28;20030;-71
2022/05/17 03:29:37;;;;;;;8.68;4.03;;;;;;;13.59;77.45;101887.66;4987865;28;20034;-71
2022/05/17 03:32:03;;;;;;;8.15;4.40;;;;;;;13.62;78.39;101892.91;4989316;28;20688;-70
2022/05/17 03:34:29;;;;;;;8.25;4.30;;;;;;;13.58;77.90;101893.22;4976911;28;20438;-77
2022/05/17 03:36:55;;;;;;;9.40;4.10;;;;;;;13.56;78.24;101893.31;4990096;28;20172;-69
2022/05/17 03:39:20;;;;;;;7.13;4.18;;;;;;;13.52;78.14;101895.41;4986814;28;20113;-69
2022/05/17 03:41:46;;;;;;;7.90;4.00;;;;;;;13.51;78.02;101893.63;4974569;28;20049;-70
2022/05/17 03:44:11;;;;;;;9.18;4.40;;;;;;;13.46;78.62;101887.59;4982479;28;20042;-71
2022/05/17 03:46:39;;;;;;;8.60;4.53;;;;;;;13.46;78.61;101893.06;5018269;28;20035;-76
2022/05/17 03:49:05;;;;;;;11.07;4.80;;;;;;;13.45;78.36;101896.78;4987100;28;20018;-70
2022/05/17 03:51:30;;;;;;;6.68;4.30;;;;;;;13.42;79.22;101899.72;4987246;28;20038;-71
2022/05/17 03:53:55;;;;;;;8.10;4.43;;;;;;;13.44;77.99;101894.16;4988051;28;20386;-69
2022/05/17 03:56:21;;;;;;;10.00;4.85;;;;;;;13.42;78.40;101888.78;4989423;28;20406;-75
2022/05/17 03:58:46;;;;;;;6.90;3.80;;;;;;;13.44;78.39;101896.91;4985291;28;20498;-78
2022/05/17 04:01:13;;;;;;;12.20;4.30;;;;;;;13.45;78.47;101894.06;4995384;28;20031;-79
2022/05/17 04:03:40;;;;;;;10.98;4.93;;;;;;;13.44;78.52;101895.03;4975256;28;20042;-74
2022/05/17 04:06:06;;;;;;;8.30;4.35;;;;;;;13.48;78.08;101895.72;4986156;28;20486;-70
2022/05/17 04:08:31;;;;;;;7.40;4.68;;;;;;;13.46;77.98;101890.34;4981710;28;20021;-79
2022/05/17 04:10:57;;;;;;;11.95;4.60;;;;;;;13.46;78.14;101908.59;5017303;28;20034;-69
2022/05/17 04:13:26;;;;;;;8.75;5.10;;;;;;;13.43;78.51;101901.50;4989081;28;20104;-70
2022/05/17 04:15:52;;;;;;;10.07;4.75;;;;;;;13.44;78.34;101905.97;4989916;28;20101;-75
2022/05/17 04:18:17;;;;;;;9.20;4.47;;;;;;;13.47;78.62;101903.00;5015055;28;20035;-70
2022/05/17 04:20:43;;;;;;;10.88;5.13;;;;;;;13.53;78.50;101909.94;4980289;28;20046;-76
2022/05/17 04:23:09;;;;;;;8.30;4.07;;;;;;;13.57;79.23;101910.59;4988711;28;20030;-77
2022/05/17 04:25:34;;;;;;;8.05;4.68;;;;;;;13.60;79.59;101914.00;4990715;28;20053;-70
2022/05/17 04:28:00;;;;;;;6.32;4.25;;;;;;;13.62;79.72;101911.19;4970475;28;20061;-70
2022/05/17 04:30:25;;;;;;;11.27;5.22;;;;;;;13.63;79.31;101916.53;4990494;28;20061;-70
2022/05/17 04:32:51;;;;;;;8.38;4.68;;;;;;;13.69;79.38;101913.38;4987087;28;20035;-78
2022/05/17 04:35:17;;;;;;;9.13;4.65;;;;;;;13.75;79.88;101923.88;4970496;28;20046;-79
2022/05/17 04:37:43;;;;;;;7.65;4.72;;;;;;;13.79;79.53;101911.75;5012774;28;20037;-71
2022/05/17 04:40:11;;;;;;;11.40;5.55;;;;;;;13.82;80.19;101916.16;4971279;28;20482;-70
2022/05/17 04:42:41;;;;;;;11.73;4.95;;;;;;;13.85;79.98;101918.69;4970810;28;20034;-77
2022/05/17 04:45:08;;;;;;;9.50;5.47;;;;;;;13.87;80.23;101915.84;4981876;28;20097;-78
2022/05/17 04:47:34;;;;;;;12.63;5.07;;;;;;;13.91;81.01;101922.84;4980205;28;20049;-76
2022/05/17 04:50:00;;;;;;;8.95;5.43;;;;;;;13.93;80.28;101913.53;4979723;28;20030;-70
2022/05/17 04:52:26;;;;;;;8.00;4.78;;;;;;;13.97;80.89;101914.22;4982997;28;20046;-76
2022/05/17 04:54:52;;;;;;;11.93;5.30;;;;;;;14.03;81.01;101919.25;4981189;28;20057;-76
2022/05/17 04:57:18;;;;;;;9.90;5.38;;;;;;;14.08;80.58;101919.78;4975725;28;20047;-71
2022/05/17 04:59:43;;;;;;;13.75;5.47;;;;;;;14.16;80.82;101928.34;4983495;28;20461;-74
2022/05/17 05:02:09;;;;;;;13.93;5.63;;;;;;;14.26;80.50;101932.19;4991234;28;20041;-70
2022/05/17 05:04:38;;;;;;;12.55;5.93;;;;;;;14.39;80.49;101924.00;4977267;28;20049;-70
2022/05/17 05:07:04;;;;;;;6.85;5.00;;;;;;;14.46;79.91;101921.72;4992295;28;20034;-74
2022/05/17 05:09:29;;;;;;;9.68;5.63;;;;;;;14.61;78.98;101931.59;4988385;28;20039;-75
2022/05/17 05:11:54;;;;;;;14.18;6.97;;;;;;;14.72;78.34;101930.78;4987205;28;20561;-71
2022/05/17 05:14:20;;;;;;;11.85;5.68;;;;;;;14.80;78.40;101928.38;4989907;28;20065;-69
2022/05/17 05:16:45;;;;;;;12.05;5.85;;;;;;;14.88;79.76;101934.19;4980195;28;20039;-70
2022/05/17 05:19:11;;;;;;;12.40;6.15;;;;;;;14.91;78.69;101936.69;4985522;28;20453;-77
2022/05/17 05:21:37;;;;;;;13.30;5.57;;;;;;;15.01;77.93;101940.53;4971177;28;20046;-76
2022/05/17 05:24:04;;;;;;;8.27;6.00;;;;;;;15.09;78.51;101941.81;4974022;28;20297;-69
2022/05/17 05:26:32;;;;;;;12.80;6.10;;;;;;;15.14;79.04;101954.16;4981466;28;20031;-70
2022/05/17 05:28:57;;;;;;;28.48;7.32;;;;;;;15.18;78.50;101955.69;5003452;28;20022;-76
2022/05/17 05:31:23;;;;;;;27.85;6.97;;;;;;;15.21;78.19;101947.25;4983842;28;20042;-78
2022/05/17 05:33:48;;;;;;;15.98;6.40;;;;;;;15.27;78.68;101951.41;4985638;28;20045;-78
2022/05/17 05:36:13;;;;;;;12.05;6.47;;;;;;;15.30;79.21;101954.81;4990981;28;20030;-75
2022/05/17 05:38:39;;;;;;;10.43;6.00;;;;;;;15.37;79.86;101962.56;4974023;28;20126;-76
2022/05/17 05:41:09;;;;;;;10.27;6.38;;;;;;;15.42;78.47;101966.69;4975812;28;20026;-76
2022/05/17 05:43:35;;;;;;;13.20;6.90;;;;;;;15.49;77.81;101965.25;4972108;28;20039;-69
2022/05/17 05:46:00;;;;;;;11.45;7.28;;;;;;;15.58;77.12;101969.19;4975329;28;20630;-70
2022/05/17 05:48:25;;;;;;;17.73;7.25;;;;;;;15.66;77.24;101974.97;4969510;28;20062;-77
2022/05/17 05:50:52;;;;;;;14.63;7.40;;;;;;;15.73;78.62;101972.66;4974081;28;20035;-71
2022/05/17 05:53:18;;;;;;;18.90;7.93;;;;;;;15.77;77.26;101971.44;4987612;28;20490;-77
2022/05/17 05:55:44;;;;;;;14.20;6.90;;;;;;;15.80;77.34;101973.91;4981802;28;20065;-74
2022/05/17 05:58:10;;;;;;;13.68;7.10;;;;;;;15.83;77.33;101968.22;4980217;28;20038;-78
2022/05/17 06:00:36;;;;;;;11.48;6.20;;;;;;;15.84;76.32;101977.31;4982472;28;20449;-76
2022/05/17 06:03:03;;;;;;;9.90;6.47;;;;;;;15.89;76.02;101973.22;4984479;28;20030;-69
2022/05/17 06:05:30;;;;;;;20.85;7.45;;;;;;;15.91;76.23;101971.25;4987104;28;20085;-75
2022/05/17 06:07:56;;;;;;;19.05;6.45;;;;;;;15.92;75.46;101963.88;4988525;28;20035;-75
2022/05/17 06:10:22;;;;;;;18.83;6.65;;;;;;;15.94;76.73;101962.75;4982482;28;20466;-78
2022/05/17 06:12:47;;;;;;;8.75;6.10;;;;;;;15.98;76.27;101969.75;4983961;28;20034;-78
2022/05/17 06:15:14;;;;;;;11.50;6.57;;;;;;;16.04;77.20;101974.81;4973641;28;20487;-75
2022/05/17 06:17:39;;;;;;;12.60;6.60;;;;;;;16.08;77.12;101975.41;4972357;28;20106;-70
2022/05/17 06:20:06;;;;;;;13.23;7.10;;;;;;;16.12;78.07;101965.94;4982223;28;20031;-76
2022/05/17 06:22:32;;;;;;;18.25;7.05;;;;;;;16.19;76.37;101971.84;4987005;28;20471;-79
2022/05/17 06:24:57;;;;;;;13.40;6.80;;;;;;;16.24;76.94;101972.38;4981534;28;20035;-70
2022/05/17 06:27:23;;;;;;;15.05;7.03;;;;;;;16.25;76.46;101976.84;4990132;28;20125;-78
2022/05/17 06:29:51;;;;;;;10.85;6.93;;;;;;;16.23;78.37;101982.47;4990610;28;20038;-78
2022/05/17 06:32:17;;;;;;;11.88;7.22;;;;;;;16.20;78.93;101968.97;4979560;28;20134;-76
2022/05/17 06:34:45;;;;;;;11.65;6.45;;;;;;;16.24;78.40;101978.72;4977117;28;20038;-71
2022/05/17 06:37:11;;;;;;;15.23;6.57;;;;;;;16.23;79.82;101982.47;4971871;28;20022;-70
2022/05/17 06:39:37;;;;;;;15.80;7.05;;;;;;;16.24;77.16;101983.34;4976686;28;20030;-75
2022/05/17 06:42:03;;;;;;;19.65;7.45;;;;;;;16.29;76.10;101986.59;4972468;28;20042;-79
2022/05/17 06:44:32;;;;;;;13.50;6.22;;;;;;;16.33;75.91;101990.88;4972477;28;20122;-70
2022/05/17 06:47:01;;;;;;;17.10;6.57;;;;;;;16.39;74.72;101998.63;4971569;28;20117;-79
2022/05/17 06:49:27;;;;;;;14.38;7.20;;;;;;;16.44;75.28;101993.63;5002892;28;20023;-76
2022/05/17 06:51:53;;;;;;;20.52;7.70;;;;;;;16.44;75.83;101993.63;4972147;28;20069;-76
2022/05/17 06:54:19;;;;;;;14.98;7.10;;;;;;;16.46;75.47;102002.66;4981539;28;20066;-71
2022/05/17 06:56:44;;;;;;;17.20;6.75;;;;;;;16.48;74.53;102008.00;4990391;28;20568;-75
2022/05/17 06:59:10;;;;;;;16.50;7.05;;;;;;;16.52;75.32;101998.53;4985161;28;20125;-70
2022/05/17 07:01:35;;;;;;;15.23;6.53;;;;;;;16.58;74.32;102003.53;4981852;28;20062;-69
2022/05/17 07:04:01;;;;;;;11.10;6.75;;;;;;;16.64;74.10;102000.28;4976828;28;21524;-77
2022/05/17 07:06:27;;;;;;;18.27;6.95;;;;;;;16.67;74.59;102008.28;4980186;28;20133;-77
2022/05/17 07:08:53;;;;;;;13.43;6.78;;;;;;;16.68;74.67;102003.66;4987168;28;20058;-76
2022/05/17 07:14:02;;;;;;;25.85;7.80;;;;;;;16.78;74.97;102007.47;4982392;28;20042;-77
2022/05/17 07:16:28;;;;;;;15.02;7.70;;;;;;;16.81;75.41;102002.59;4982381;28;20471;-77
2022/05/17 07:18:54;;;;;;;15.60;7.25;;;;;;;16.83;74.59;102003.38;4981955;28;20042;-76
2022/05/17 07:21:19;;;;;;;19.38;7.97;;;;;;;16.83;74.71;102011.63;4981510;28;20027;-73
2022/05/17 07:23:45;;;;;;;19.55;8.68;;;;;;;16.86;75.87;102017.84;4989868;28;20034;-70
2022/05/17 07:26:13;;;;;;;16.85;7.82;;;;;;;16.89;76.84;102018.50;4986534;28;20166;-75
2022/05/17 07:28:44;;;;;;;23.15;8.40;;;;;;;16.84;76.18;102018.00;5021167;28;20096;-70
2022/05/17 07:31:10;;;;;;;15.27;7.90;;;;;;;16.84;76.47;102018.00;4982238;28;20045;-75
2022/05/17 07:33:36;;;;;;;13.05;7.32;;;;;;;16.87;76.43;102014.09;4987130;28;20034;-70
2022/05/17 07:36:03;;;;;;;16.75;9.00;;;;;;;16.89;75.66;102017.63;5012607;28;20037;-70
2022/05/17 07:38:29;;;;;;;17.35;9.05;;;;;;;16.81;77.10;102004.47;4990788;28;20042;-70
2022/05/17 07:40:54;;;;;;;18.13;9.30;;;;;;;16.77;78.00;101990.09;4978845;28;20038;-70
2022/05/17 07:43:20;;;;;;;26.55;11.30;;;;;;;16.71;79.75;101995.19;4990900;28;20054;-73
2022/05/17 07:45:49;;;;;;;16.77;11.07;;;;;;;16.72;79.41;101996.97;4990892;28;20023;-70
2022/05/17 07:48:19;;;;;;;18.27;10.75;;;;;;;16.72;77.88;102000.59;4979058;28;20426;-68
2022/05/17 07:50:44;;;;;;;18.50;10.30;;;;;;;16.77;76.98;102009.34;4987618;28;20152;-73
2022/05/17 07:53:12;;;;;;;22.40;10.77;;;;;;;16.80;78.13;102017.34;4986594;28;20625;-70
2022/05/17 07:55:39;;;;;;;18.00;11.18;;;;;;;16.87;78.21;102016.84;4987340;28;20062;-69
2022/05/17 07:58:06;;;;;;;16.98;10.85;;;;;;;16.96;77.81;102027.97;4984819;28;20140;-74
2022/05/17 08:00:32;;;;;;;20.85;10.98;;;;;;;17.06;78.47;102022.59;4981227;28;20101;-70
2022/05/17 08:02:58;;;;;;;21.35;12.98;;;;;;;17.16;79.57;102029.13;4984126;28;20038;-73
2022/05/17 08:05:25;;;;;;;25.77;11.85;;;;;;;17.25;78.08;102017.38;4977324;28;20117;-69
2022/05/17 08:07:51;;;;;;;22.50;13.00;;;;;;;17.39;78.71;102023.59;4989194;28;20027;-73
2022/05/17 08:10:17;;;;;;;17.77;10.95;;;;;;;17.43;77.04;102017.72;4989358;28;20081;-74
2022/05/17 08:12:43;;;;;;;19.70;11.43;;;;;;;17.52;76.10;102019.69;4985420;28;20042;-74
2022/05/17 08:15:09;;;;;;;21.38;11.50;;;;;;;17.72;77.61;102023.56;5011940;28;20041;-69
2022/05/17 08:17:35;;;;;;;14.73;10.18;;;;;;;17.87;77.16;102023.31;4978170;28;20097;-75
2022/05/17 08:20:00;;;;;;;17.80;10.80;;;;;;;17.97;75.85;102029.78;4983882;28;20042;-75
2022/05/17 08:22:26;;;;;;;18.00;10.80;;;;;;;18.04;76.45;102031.88;4984111;28;20040;-71
2022/05/17 08:27:39;;;;;;;18.30;11.10;;;;;;;18.23;75.43;102036.69;4990504;28;20070;-69
2022/05/17 08:30:11;;;;;;;22.38;12.95;;;;;;;18.21;76.83;102019.41;4984704;28;20601;-75
2022/05/17 08:35:29;;;;;;;17.77;10.02;;;;;;;18.14;73.99;102026.47;4983387;28;20489;-69
2022/05/17 08:37:55;;;;;;;16.98;9.43;;;;;;;18.12;74.29;102030.34;4982773;28;20030;-73
2022/05/17 08:40:22;;;;;;;16.88;10.43;;;;;;;18.13;74.57;102019.19;4990114;28;20096;-74
2022/05/17 08:43:00;;;;;;;17.27;10.18;;;;;;;18.16;73.56;102023.56;4986946;28;20030;-75
2022/05/17 08:45:42;;;;;;;21.67;9.57;;;;;;;18.18;74.67;102025.16;4987217;28;20497;-75
2022/05/17 08:48:16;;;;;;;17.92;10.23;;;;;;;18.24;75.66;102016.41;4979691;28;20034;-75
2022/05/17 08:50:45;;;;;;;22.20;10.93;;;;;;;18.19;76.71;102018.69;4978072;28;20117;-75
2022/05/17 08:53:16;;;;;;;16.00;9.45;;;;;;;18.15;75.72;102008.06;4981817;28;20405;-74
2022/05/17 08:55:43;;;;;;;15.65;9.40;;;;;;;18.17;75.82;102001.41;4989572;28;20378;-69
2022/05/17 08:58:25;;;;;;;16.70;9.20;;;;;;;18.25;75.80;102004.38;4989134;28;20066;-75
2022/05/17 09:00:54;;;;;;;16.35;9.40;;;;;;;18.33;76.68;102004.59;4984987;28;20070;-75
2022/05/17 09:03:41;;;;;;;19.75;10.43;;;;;;;18.41;76.14;102006.66;4975969;28;20382;-75
2022/05/17 09:06:29;;;;;;;16.77;9.05;;;;;;;18.52;75.53;102003.84;4971078;28;20085;-69
2022/05/17 09:09:03;;;;;;;15.65;9.57;;;;;;;18.64;75.35;102012.91;4988851;28;20464;-69
2022/05/17 09:11:49;;;;;;;18.42;10.20;;;;;;;18.72;76.88;102009.53;4985738;28;20049;-68
2022/05/17 09:14:20;;;;;;;18.20;9.77;;;;;;;18.85;75.28;102008.28;4984075;28;20046;-68
2022/05/17 09:16:55;;;;;;;15.93;10.43;;;;;;;19.03;76.64;102002.16;4983382;28;20521;-75
2022/05/17 09:19:20;;;;;;;16.23;10.68;;;;;;;19.20;75.12;102000.63;4980392;28;20027;-76
2022/05/17 09:21:48;;;;;;;17.55;10.43;;;;;;;19.40;74.78;102005.22;4963301;28;20065;-75
2022/05/17 09:24:19;;;;;;;16.92;10.27;;;;;;;19.50;73.99;102000.59;5019905;28;20109;-73
2022/05/17 09:26:53;;;;;;;18.40;10.00;;;;;;;19.61;74.47;101992.22;4989931;28;20073;-68
2022/05/17 09:29:29;;;;;;;17.85;8.85;;;;;;;19.77;73.48;101994.44;4990057;28;20498;-68
2022/05/17 09:32:00;;;;;;;15.10;8.25;;;;;;;19.99;71.82;101992.41;4987237;28;20121;-75
2022/05/17 09:34:33;;;;;;;13.75;7.10;;;;;;;20.04;71.13;101982.66;4983934;28;20034;-68
2022/05/17 09:37:07;;;;;;;16.85;6.80;;;;;;;20.33;70.65;101979.00;4993562;28;20042;-69
2022/05/17 09:39:33;;;;;;;9.38;6.20;;;;;;;20.63;69.93;101989.03;4993387;28;20088;-68
2022/05/17 09:42:02;;;;;;;9.77;5.85;;;;;;;21.03;68.53;101988.78;4999329;28;20031;-75
2022/05/17 09:44:30;;;;;;;17.65;6.88;;;;;;;21.39;68.41;101981.50;4984660;28;20367;-75
2022/05/17 09:46:59;;;;;;;10.40;5.78;;;;;;;21.61;66.56;101982.13;4991455;28;20045;-68
2022/05/17 09:52:46;;;;;;;14.52;5.68;;;;;;;21.99;65.00;101980.09;4982911;28;20406;-75
2022/05/17 09:55:25;;;;;;;12.55;5.85;;;;;;;22.16;63.10;101976.47;4988895;28;20054;-68
2022/05/17 09:57:53;;;;;;;13.82;5.20;;;;;;;22.55;62.89;101978.88;4991185;28;20031;-75
2022/05/17 10:00:27;;;;;;;12.90;5.53;;;;;;;22.90;61.37;101978.81;4988853;28;20038;-67
2022/05/17 10:03:04;;;;;;;8.82;5.32;;;;;;;23.13;57.28;101970.78;4981736;28;20042;-68
2022/05/17 10:05:55;;;;;;;10.52;4.60;;;;;;;23.14;59.60;101968.88;4985861;28;20490;-68
2022/05/17 10:08:20;;;;;;;10.77;5.15;;;;;;;23.68;56.62;101959.19;4988423;28;20030;-68
2022/05/17 10:11:06;;;;;;;8.85;4.80;;;;;;;24.05;57.79;101957.88;4989108;28;20029;-75
2022/05/17 10:14:07;;;;;;;9.82;4.82;;;;;;;24.33;57.93;101954.75;4992475;28;20045;-68
2022/05/17 10:16:52;;;;;;;12.43;4.90;;;;;;;24.46;57.20;101949.56;4987951;28;20110;-76
2022/05/17 10:19:47;;;;;;;12.38;4.38;;;;;;;24.41;56.25;101941.75;4974758;28;20037;-68
2022/05/17 10:22:16;;;;;;;6.88;3.90;;;;;;;24.37;53.85;101948.69;4983137;28;20448;-68
2022/05/17 10:24:48;;;;;;;10.52;4.10;;;;;;;24.36;52.77;101948.84;4992908;28;20034;-68
2022/05/17 10:27:29;;;;;;;12.82;5.03;;;;;;;24.34;54.17;101940.69;4992573;28;20493;-73
2022/05/17 10:30:00;;;;;;;6.78;4.45;;;;;;;24.23;52.21;101945.72;4985812;28;20393;-68
2022/05/17 10:32:30;;;;;;;8.93;4.88;;;;;;;24.12;52.84;101942.25;4989652;28;20444;-75
2022/05/17 10:35:01;;;;;;;9.18;4.55;;;;;;;23.96;53.63;101941.34;4977662;28;20031;-69
2022/05/17 10:37:32;;;;;;;15.95;5.07;;;;;;;23.77;51.91;101940.63;4992473;28;20493;-67
2022/05/17 10:40:01;;;;;;;8.90;4.40;;;;;;;23.71;53.00;101938.53;4992375;28;20106;-67
2022/05/17 10:42:28;;;;;;;9.45;5.00;;;;;;;23.83;53.81;101941.88;4980701;28;20038;-69
2022/05/17 10:44:56;;;;;;;7.57;4.90;;;;;;;23.99;55.16;101947.44;4991745;28;20088;-76
2022/05/17 10:47:40;;;;;;;14.32;5.43;;;;;;;24.31;55.01;101943.81;4987068;28;20125;-74
2022/05/17 10:50:21;;;;;;;11.65;5.57;;;;;;;24.42;52.18;101943.47;4979787;28;20022;-69
2022/05/17 10:52:58;;;;;;;22.38;5.72;;;;;;;24.51;51.90;101938.78;4987633;28;20085;-68
2022/05/17 10:55:36;;;;;;;15.77;5.00;;;;;;;24.83;53.03;101940.63;4988967;28;20050;-74
2022/05/17 10:58:32;;;;;;;13.45;4.95;;;;;;;25.05;52.65;101933.44;4986904;28;20067;-68
2022/05/17 11:01:27;;;;;;;9.40;5.15;;;;;;;25.16;50.40;101934.97;4986811;28;20684;-67
2022/05/17 11:04:16;;;;;;;7.75;5.53;;;;;;;25.39;50.25;101930.34;4989710;28;20055;-75
2022/05/17 11:07:08;;;;;;;9.73;5.95;;;;;;;25.57;51.32;101921.72;4982465;28;20046;-71
2022/05/17 11:09:56;;;;;;;21.55;7.30;;;;;;;25.71;51.73;101922.84;4987208;28;20380;-69
2022/05/17 11:12:27;;;;;;;9.75;5.32;;;;;;;25.81;46.32;101914.25;4986207;28;20121;-68
2022/05/17 11:14:59;;;;;;;12.15;5.65;;;;;;;25.86;46.31;101903.41;4980890;28;20030;-68
2022/05/17 11:17:36;;;;;;;65.70;7.40;;;;;;;26.24;49.03;101915.47;4989780;28;20108;-70
2022/05/17 11:20:21;;;;;;;18.50;4.93;;;;;;;26.54;47.92;101902.50;4981585;28;20065;-75
2022/05/17 11:22:58;;;;;;;8.90;4.25;;;;;;;26.82;47.71;101896.25;4991441;28;20045;-68
2022/05/17 11:25:45;;;;;;;8.45;4.47;;;;;;;26.91;44.73;101892.31;4981748;28;20401;-75
2022/05/17 11:28:13;;;;;;;11.80;5.20;;;;;;;26.79;44.29;101889.13;4989703;28;20375;-68
2022/05/17 11:30:54;;;;;;;11.18;4.53;;;;;;;26.81;46.81;101884.19;4991679;28;20034;-76
2022/05/17 11:33:23;;;;;;;12.15;4.10;;;;;;;26.93;45.64;101879.88;4978175;28;20046;-67
2022/05/17 11:35:52;;;;;;;11.73;4.88;;;;;;;26.73;45.49;101875.94;4985600;28;20034;-75
2022/05/17 11:38:33;;;;;;;10.93;4.15;;;;;;;27.11;46.88;101875.84;4990010;28;20034;-75
2022/05/17 11:41:15;;;;;;;9.77;4.50;;;;;;;27.23;42.90;101879.84;4991249;28;20120;-77